sensor_id;sensor_type;location;lat;lon;timestamp;temperature;humidity
10123;DHT22;5101;49.038;8.710;2022-09-12T00:00:07;15.40;99.90
10123;DHT22;5101;49.038;8.710;2022-09-12T00:02:33;15.30;99.90
10123;DHT22;5101;49.038;8.710;2022-09-12T00:04:58;15.30;99.90
10123;DHT22;5101;49.038;8.710;2022-09-12T00:07:24;15.30;99.90
10123;DHT22;5101;49.038;8.710;2022-09-12T00:09:50;15.30;99.90
10123;DHT22;5101;49.038;8.710;2022-09-12T00:12:16;15.30;99.90
10123;DHT22;5101;49.038;8.710;2022-09-12T00:14:41;15.30;99.90
10123;DHT22;5101;49.038;8.710;2022-09-12T00:17:06;15.30;99.90
10123;DHT22;5101;49.038;8.710;2022-09-12T00:19:32;15.30;99.90
10123;DHT22;5101;49.038;8.710;2022-09-12T00:21:57;15.20;99.90
10123;DHT22;5101;49.038;8.710;2022-09-12T00:24:23;15.20;99.90
10123;DHT22;5101;49.038;8.710;2022-09-12T00:26:48;15.20;99.90
10123;DHT22;5101;49.038;8.710;2022-09-12T00:29:20;15.20;99.90
10123;DHT22;5101;49.038;8.710;2022-09-12T00:31:46;15.10;99.90
10123;DHT22;5101;49.038;8.710;2022-09-12T00:34:12;15.00;99.90
10123;DHT22;5101;49.038;8.710;2022-09-12T00:36:38;15.00;99.90
10123;DHT22;5101;49.038;8.710;2022-09-12T00:39:05;15.00;99.90
10123;DHT22;5101;49.038;8.710;2022-09-12T00:41:37;15.00;99.90
10123;DHT22;5101;49.038;8.710;2022-09-12T00:46:53;15.00;99.90
10123;DHT22;5101;49.038;8.710;2022-09-12T00:49:28;15.00;99.90
10123;DHT22;5101;49.038;8.710;2022-09-12T00:52:12;15.00;99.90
10123;DHT22;5101;49.038;8.710;2022-09-12T00:57:59;14.90;99.90
10123;DHT22;5101;49.038;8.710;2022-09-12T01:00:27;14.90;99.90
10123;DHT22;5101;49.038;8.710;2022-09-12T01:02:57;14.90;99.90
10123;DHT22;5101;49.038;8.710;2022-09-12T01:05:25;14.90;99.90
10123;DHT22;5101;49.038;8.710;2022-09-12T01:07:52;14.90;99.90
10123;DHT22;5101;49.038;8.710;2022-09-12T01:10:19;14.90;99.90
10123;DHT22;5101;49.038;8.710;2022-09-12T01:12:45;14.90;99.90
10123;DHT22;5101;49.038;8.710;2022-09-12T01:15:12;14.90;99.90
10123;DHT22;5101;49.038;8.710;2022-09-12T01:18:28;14.80;99.90
10123;DHT22;5101;49.038;8.710;2022-09-12T01:35:24;14.70;99.90
10123;DHT22;5101;49.038;8.710;2022-09-12T01:38:15;14.70;99.90
10123;DHT22;5101;49.038;8.710;2022-09-12T01:43:51;14.60;99.90
10123;DHT22;5101;49.038;8.710;2022-09-12T01:49:19;14.70;99.90
10123;DHT22;5101;49.038;8.710;2022-09-12T01:52:10;14.70;99.90
10123;DHT22;5101;49.038;8.710;2022-09-12T01:57:42;14.70;99.90
10123;DHT22;5101;49.038;8.710;2022-09-12T02:00:10;14.70;99.90
10123;DHT22;5101;49.038;8.710;2022-09-12T02:05:14;14.60;99.90
10123;DHT22;5101;49.038;8.710;2022-09-12T02:07:45;14.60;99.90
10123;DHT22;5101;49.038;8.710;2022-09-12T02:10:15;14.60;99.90
10123;DHT22;5101;49.038;8.710;2022-09-12T02:12:46;14.60;99.90
10123;DHT22;5101;49.038;8.710;2022-09-12T02:15:16;14.60;99.90
10123;DHT22;5101;49.038;8.710;2022-09-12T02:17:45;14.60;99.90
10123;DHT22;5101;49.038;8.710;2022-09-12T02:20:19;14.60;99.90
10123;DHT22;5101;49.038;8.710;2022-09-12T02:22:46;14.60;99.90
10123;DHT22;5101;49.038;8.710;2022-09-12T02:25:15;14.60;99.90
10123;DHT22;5101;49.038;8.710;2022-09-12T02:27:46;14.60;99.90
10123;DHT22;5101;49.038;8.710;2022-09-12T02:30:13;14.60;99.90
10123;DHT22;5101;49.038;8.710;2022-09-12T02:33:00;14.60;99.90
10123;DHT22;5101;49.038;8.710;2022-09-12T02:35:57;14.60;99.90
10123;DHT22;5101;49.038;8.710;2022-09-12T02:40:55;14.50;99.90
10123;DHT22;5101;49.038;8.710;2022-09-12T02:43:21;14.50;99.90
10123;DHT22;5101;49.038;8.710;2022-09-12T02:45:46;14.50;99.90
10123;DHT22;5101;49.038;8.710;2022-09-12T02:48:30;14.50;99.90
10123;DHT22;5101;49.038;8.710;2022-09-12T02:50:58;14.50;99.90
10123;DHT22;5101;49.038;8.710;2022-09-12T02:53:25;14.40;99.90
10123;DHT22;5101;49.038;8.710;2022-09-12T02:55:51;14.40;99.90
10123;DHT22;5101;49.038;8.710;2022-09-12T02:58:19;14.40;99.90
10123;DHT22;5101;49.038;8.710;2022-09-12T03:01:02;14.40;99.90
10123;DHT22;5101;49.038;8.710;2022-09-12T03:09:14;14.40;99.90
10123;DHT22;5101;49.038;8.710;2022-09-12T03:22:49;14.30;99.90
10123;DHT22;5101;49.038;8.710;2022-09-12T03:25:29;14.30;99.90
10123;DHT22;5101;49.038;8.710;2022-09-12T03:28:11;14.30;99.90
10123;DHT22;5101;49.038;8.710;2022-09-12T03:30:43;14.20;99.90
10123;DHT22;5101;49.038;8.710;2022-09-12T03:33:14;14.20;99.90
10123;DHT22;5101;49.038;8.710;2022-09-12T03:35:39;14.20;99.90
10123;DHT22;5101;49.038;8.710;2022-09-12T03:38:05;14.20;99.90
10123;DHT22;5101;49.038;8.710;2022-09-12T03:40:33;14.20;99.90
10123;DHT22;5101;49.038;8.710;2022-09-12T03:42:58;14.20;99.90
10123;DHT22;5101;49.038;8.710;2022-09-12T03:45:24;14.20;99.90
10123;DHT22;5101;49.038;8.710;2022-09-12T03:47:49;14.20;99.90
10123;DHT22;5101;49.038;8.710;2022-09-12T03:50:15;14.20;99.90
10123;DHT22;5101;49.038;8.710;2022-09-12T03:52:40;14.20;99.90
10123;DHT22;5101;49.038;8.710;2022-09-12T03:55:06;14.20;99.90
10123;DHT22;5101;49.038;8.710;2022-09-12T03:57:32;14.20;99.90
10123;DHT22;5101;49.038;8.710;2022-09-12T03:59:57;14.20;99.90
10123;DHT22;5101;49.038;8.710;2022-09-12T04:02:23;14.10;99.90
10123;DHT22;5101;49.038;8.710;2022-09-12T04:04:49;14.10;99.90
10123;DHT22;5101;49.038;8.710;2022-09-12T04:07:15;14.10;99.90
10123;DHT22;5101;49.038;8.710;2022-09-12T04:09:41;14.10;99.90
10123;DHT22;5101;49.038;8.710;2022-09-12T04:12:06;14.10;99.90
10123;DHT22;5101;49.038;8.710;2022-09-12T04:14:32;14.10;99.90
10123;DHT22;5101;49.038;8.710;2022-09-12T04:16:58;14.10;99.90
10123;DHT22;5101;49.038;8.710;2022-09-12T04:19:25;14.00;99.90
10123;DHT22;5101;49.038;8.710;2022-09-12T04:21:50;14.00;99.90
10123;DHT22;5101;49.038;8.710;2022-09-12T04:24:16;14.00;99.90
10123;DHT22;5101;49.038;8.710;2022-09-12T04:26:42;14.00;99.90
10123;DHT22;5101;49.038;8.710;2022-09-12T04:29:11;14.00;99.90
10123;DHT22;5101;49.038;8.710;2022-09-12T04:31:37;13.90;99.90
10123;DHT22;5101;49.038;8.710;2022-09-12T04:34:03;13.90;99.90
10123;DHT22;5101;49.038;8.710;2022-09-12T04:36:30;13.90;99.90
10123;DHT22;5101;49.038;8.710;2022-09-12T04:38:56;13.90;99.90
10123;DHT22;5101;49.038;8.710;2022-09-12T04:41:33;13.90;99.90
10123;DHT22;5101;49.038;8.710;2022-09-12T04:44:05;13.90;99.90
10123;DHT22;5101;49.038;8.710;2022-09-12T04:46:34;13.90;99.90
10123;DHT22;5101;49.038;8.710;2022-09-12T04:49:01;13.90;99.90
10123;DHT22;5101;49.038;8.710;2022-09-12T04:51:29;13.90;99.90
10123;DHT22;5101;49.038;8.710;2022-09-12T04:53:57;13.90;99.90
10123;DHT22;5101;49.038;8.710;2022-09-12T04:56:24;13.80;99.90
10123;DHT22;5101;49.038;8.710;2022-09-12T04:58:50;13.90;99.90
10123;DHT22;5101;49.038;8.710;2022-09-12T05:01:19;13.80;99.90
10123;DHT22;5101;49.038;8.710;2022-09-12T05:03:46;13.80;99.90
10123;DHT22;5101;49.038;8.710;2022-09-12T05:06:16;13.80;99.90
10123;DHT22;5101;49.038;8.710;2022-09-12T05:08:42;13.80;99.90
10123;DHT22;5101;49.038;8.710;2022-09-12T05:11:13;13.80;99.90
10123;DHT22;5101;49.038;8.710;2022-09-12T05:13:39;13.80;99.90
10123;DHT22;5101;49.038;8.710;2022-09-12T05:16:06;13.80;99.90
10123;DHT22;5101;49.038;8.710;2022-09-12T05:18:34;13.80;99.90
10123;DHT22;5101;49.038;8.710;2022-09-12T05:21:00;13.80;99.90
10123;DHT22;5101;49.038;8.710;2022-09-12T05:23:27;13.80;99.90
10123;DHT22;5101;49.038;8.710;2022-09-12T05:25:55;13.80;99.90
10123;DHT22;5101;49.038;8.710;2022-09-12T05:28:23;13.80;99.90
10123;DHT22;5101;49.038;8.710;2022-09-12T05:30:59;13.80;99.90
10123;DHT22;5101;49.038;8.710;2022-09-12T05:33:25;13.70;99.90
10123;DHT22;5101;49.038;8.710;2022-09-12T05:35:51;13.80;99.90
10123;DHT22;5101;49.038;8.710;2022-09-12T05:38:17;13.80;99.90
10123;DHT22;5101;49.038;8.710;2022-09-12T05:40:42;13.80;99.90
10123;DHT22;5101;49.038;8.710;2022-09-12T05:43:08;13.80;99.90
10123;DHT22;5101;49.038;8.710;2022-09-12T05:45:37;13.90;99.90
10123;DHT22;5101;49.038;8.710;2022-09-12T05:48:02;13.90;99.90
10123;DHT22;5101;49.038;8.710;2022-09-12T05:50:28;13.90;99.90
10123;DHT22;5101;49.038;8.710;2022-09-12T05:52:53;13.90;99.90
10123;DHT22;5101;49.038;8.710;2022-09-12T05:55:19;13.90;99.90
10123;DHT22;5101;49.038;8.710;2022-09-12T05:57:45;14.00;99.90
10123;DHT22;5101;49.038;8.710;2022-09-12T06:00:12;14.00;99.90
10123;DHT22;5101;49.038;8.710;2022-09-12T06:02:39;14.00;99.90
10123;DHT22;5101;49.038;8.710;2022-09-12T06:05:04;14.10;99.90
10123;DHT22;5101;49.038;8.710;2022-09-12T06:07:30;14.10;99.90
10123;DHT22;5101;49.038;8.710;2022-09-12T06:09:57;14.20;99.90
10123;DHT22;5101;49.038;8.710;2022-09-12T06:12:24;14.20;99.90
10123;DHT22;5101;49.038;8.710;2022-09-12T06:14:51;14.20;99.90
10123;DHT22;5101;49.038;8.710;2022-09-12T06:17:16;14.30;99.90
10123;DHT22;5101;49.038;8.710;2022-09-12T06:19:43;14.30;99.90
10123;DHT22;5101;49.038;8.710;2022-09-12T06:22:08;14.40;99.90
10123;DHT22;5101;49.038;8.710;2022-09-12T06:24:34;14.40;99.90
10123;DHT22;5101;49.038;8.710;2022-09-12T06:27:00;14.40;99.90
10123;DHT22;5101;49.038;8.710;2022-09-12T06:29:27;14.50;99.90
10123;DHT22;5101;49.038;8.710;2022-09-12T06:31:53;14.60;99.90
10123;DHT22;5101;49.038;8.710;2022-09-12T06:34:18;14.60;99.90
10123;DHT22;5101;49.038;8.710;2022-09-12T06:36:48;14.70;99.90
10123;DHT22;5101;49.038;8.710;2022-09-12T06:39:20;14.70;99.90
10123;DHT22;5101;49.038;8.710;2022-09-12T06:41:47;14.80;99.90
10123;DHT22;5101;49.038;8.710;2022-09-12T06:44:15;14.90;99.90
10123;DHT22;5101;49.038;8.710;2022-09-12T06:46:41;14.90;99.90
10123;DHT22;5101;49.038;8.710;2022-09-12T06:49:07;15.00;99.90
10123;DHT22;5101;49.038;8.710;2022-09-12T06:51:33;15.00;99.90
10123;DHT22;5101;49.038;8.710;2022-09-12T06:54:00;15.10;99.90
10123;DHT22;5101;49.038;8.710;2022-09-12T06:56:26;15.20;99.90
10123;DHT22;5101;49.038;8.710;2022-09-12T06:58:54;15.30;99.90
10123;DHT22;5101;49.038;8.710;2022-09-12T07:01:25;15.30;99.90
10123;DHT22;5101;49.038;8.710;2022-09-12T07:03:53;15.40;99.90
10123;DHT22;5101;49.038;8.710;2022-09-12T07:06:21;15.50;99.90
10123;DHT22;5101;49.038;8.710;2022-09-12T07:08:47;15.60;99.90
10123;DHT22;5101;49.038;8.710;2022-09-12T07:11:19;15.70;99.90
10123;DHT22;5101;49.038;8.710;2022-09-12T07:13:47;15.70;99.90
10123;DHT22;5101;49.038;8.710;2022-09-12T07:16:13;16.00;99.90
10123;DHT22;5101;49.038;8.710;2022-09-12T07:18:39;16.30;99.90
10123;DHT22;5101;49.038;8.710;2022-09-12T07:21:08;16.80;99.90
10123;DHT22;5101;49.038;8.710;2022-09-12T07:23:34;17.30;99.90
10123;DHT22;5101;49.038;8.710;2022-09-12T07:26:00;17.90;99.90
10123;DHT22;5101;49.038;8.710;2022-09-12T07:28:28;18.50;99.90
10123;DHT22;5101;49.038;8.710;2022-09-12T07:30:54;19.10;99.90
10123;DHT22;5101;49.038;8.710;2022-09-12T07:33:30;19.70;99.90
10123;DHT22;5101;49.038;8.710;2022-09-12T07:36:03;20.20;99.90
10123;DHT22;5101;49.038;8.710;2022-09-12T07:38:29;20.80;99.30
10123;DHT22;5101;49.038;8.710;2022-09-12T07:40:55;21.30;97.60
10123;DHT22;5101;49.038;8.710;2022-09-12T07:43:21;21.80;96.20
10123;DHT22;5101;49.038;8.710;2022-09-12T07:45:47;22.40;94.30
10123;DHT22;5101;49.038;8.710;2022-09-12T07:48:12;22.80;93.10
10123;DHT22;5101;49.038;8.710;2022-09-12T07:50:38;23.20;91.10
10123;DHT22;5101;49.038;8.710;2022-09-12T07:53:04;23.50;90.00
10123;DHT22;5101;49.038;8.710;2022-09-12T07:55:29;24.10;87.60
10123;DHT22;5101;49.038;8.710;2022-09-12T07:57:55;24.60;84.40
10123;DHT22;5101;49.038;8.710;2022-09-12T08:00:21;25.00;81.70
10123;DHT22;5101;49.038;8.710;2022-09-12T08:02:51;25.40;79.10
10123;DHT22;5101;49.038;8.710;2022-09-12T08:05:17;25.80;76.40
10123;DHT22;5101;49.038;8.710;2022-09-12T08:07:42;26.20;74.80
10123;DHT22;5101;49.038;8.710;2022-09-12T08:10:08;26.40;73.70
10123;DHT22;5101;49.038;8.710;2022-09-12T08:12:34;26.80;70.60
10123;DHT22;5101;49.038;8.710;2022-09-12T08:14:59;27.10;68.00
10123;DHT22;5101;49.038;8.710;2022-09-12T08:17:25;27.40;66.20
10123;DHT22;5101;49.038;8.710;2022-09-12T08:19:51;27.80;64.40
10123;DHT22;5101;49.038;8.710;2022-09-12T08:22:17;28.20;62.80
10123;DHT22;5101;49.038;8.710;2022-09-12T08:24:46;28.60;60.70
10123;DHT22;5101;49.038;8.710;2022-09-12T08:27:12;28.80;58.60
10123;DHT22;5101;49.038;8.710;2022-09-12T08:29:39;29.00;56.50
10123;DHT22;5101;49.038;8.710;2022-09-12T08:32:04;29.10;54.30
10123;DHT22;5101;49.038;8.710;2022-09-12T08:34:30;29.20;53.20
10123;DHT22;5101;49.038;8.710;2022-09-12T08:36:55;29.40;51.80
10123;DHT22;5101;49.038;8.710;2022-09-12T08:39:22;29.40;50.30
10123;DHT22;5101;49.038;8.710;2022-09-12T08:41:57;29.70;49.40
10123;DHT22;5101;49.038;8.710;2022-09-12T08:44:48;30.10;48.20
10123;DHT22;5101;49.038;8.710;2022-09-12T08:47:25;30.30;47.00
10123;DHT22;5101;49.038;8.710;2022-09-12T08:50:18;29.60;46.70
10123;DHT22;5101;49.038;8.710;2022-09-12T08:52:58;29.50;47.20
10123;DHT22;5101;49.038;8.710;2022-09-12T08:55:39;29.80;46.70
10123;DHT22;5101;49.038;8.710;2022-09-12T08:58:19;30.20;45.30
10123;DHT22;5101;49.038;8.710;2022-09-12T09:01:17;30.10;44.30
10123;DHT22;5101;49.038;8.710;2022-09-12T09:04:21;30.50;44.20
10123;DHT22;5101;49.038;8.710;2022-09-12T09:07:26;30.70;43.30
10123;DHT22;5101;49.038;8.710;2022-09-12T09:13:22;31.20;41.40
10123;DHT22;5101;49.038;8.710;2022-09-12T09:18:57;31.50;40.20
10123;DHT22;5101;49.038;8.710;2022-09-12T09:21:34;31.30;39.80
10123;DHT22;5101;49.038;8.710;2022-09-12T09:24:08;31.20;39.40
10123;DHT22;5101;49.038;8.710;2022-09-12T09:26:38;31.30;39.10
10123;DHT22;5101;49.038;8.710;2022-09-12T09:29:12;31.20;39.60
10123;DHT22;5101;49.038;8.710;2022-09-12T09:31:38;31.30;39.00
10123;DHT22;5101;49.038;8.710;2022-09-12T09:34:22;31.50;38.90
10123;DHT22;5101;49.038;8.710;2022-09-12T09:36:50;31.60;38.10
10123;DHT22;5101;49.038;8.710;2022-09-12T09:42:10;31.90;36.80
10123;DHT22;5101;49.038;8.710;2022-09-12T09:44:37;32.30;35.90
10123;DHT22;5101;49.038;8.710;2022-09-12T09:47:03;32.30;36.60
10123;DHT22;5101;49.038;8.710;2022-09-12T09:49:32;32.50;36.20
10123;DHT22;5101;49.038;8.710;2022-09-12T09:51:58;32.70;35.50
10123;DHT22;5101;49.038;8.710;2022-09-12T09:54:30;32.30;35.20
10123;DHT22;5101;49.038;8.710;2022-09-12T09:56:57;32.10;35.60
10123;DHT22;5101;49.038;8.710;2022-09-12T09:59:31;32.10;35.90
10123;DHT22;5101;49.038;8.710;2022-09-12T10:04:39;32.30;35.00
10123;DHT22;5101;49.038;8.710;2022-09-12T10:07:16;32.00;35.00
10123;DHT22;5101;49.038;8.710;2022-09-12T10:10:15;32.10;34.60
10123;DHT22;5101;49.038;8.710;2022-09-12T10:12:41;32.00;34.30
10123;DHT22;5101;49.038;8.710;2022-09-12T10:15:23;31.90;34.50
10123;DHT22;5101;49.038;8.710;2022-09-12T10:17:51;32.00;34.10
10123;DHT22;5101;49.038;8.710;2022-09-12T10:20:39;32.20;34.10
10123;DHT22;5101;49.038;8.710;2022-09-12T10:23:31;32.10;33.50
10123;DHT22;5101;49.038;8.710;2022-09-12T10:26:00;31.80;33.80
10123;DHT22;5101;49.038;8.710;2022-09-12T10:28:44;31.70;34.90
10123;DHT22;5101;49.038;8.710;2022-09-12T10:31:33;31.30;35.10
10123;DHT22;5101;49.038;8.710;2022-09-12T10:34:03;31.30;34.80
10123;DHT22;5101;49.038;8.710;2022-09-12T10:36:37;31.60;35.20
10123;DHT22;5101;49.038;8.710;2022-09-12T10:39:05;31.80;35.20
10123;DHT22;5101;49.038;8.710;2022-09-12T10:41:36;31.50;34.90
10123;DHT22;5101;49.038;8.710;2022-09-12T10:44:11;31.80;35.10
10123;DHT22;5101;49.038;8.710;2022-09-12T10:46:38;31.90;34.50
10123;DHT22;5101;49.038;8.710;2022-09-12T10:49:21;32.00;34.60
10123;DHT22;5101;49.038;8.710;2022-09-12T10:51:47;32.00;33.60
10123;DHT22;5101;49.038;8.710;2022-09-12T10:54:16;31.80;34.10
10123;DHT22;5101;49.038;8.710;2022-09-12T11:07:46;32.70;32.70
10123;DHT22;5101;49.038;8.710;2022-09-12T11:16:02;32.70;32.80
10123;DHT22;5101;49.038;8.710;2022-09-12T11:24:09;32.10;33.00
10123;DHT22;5101;49.038;8.710;2022-09-12T11:32:09;31.60;33.00
10123;DHT22;5101;49.038;8.710;2022-09-12T11:43:09;31.40;31.70
10123;DHT22;5101;49.038;8.710;2022-09-12T11:45:42;31.10;32.60
10123;DHT22;5101;49.038;8.710;2022-09-12T11:50:52;31.40;32.10
10123;DHT22;5101;49.038;8.710;2022-09-12T11:53:25;31.50;32.10
10123;DHT22;5101;49.038;8.710;2022-09-12T11:56:08;31.30;31.60
10123;DHT22;5101;49.038;8.710;2022-09-12T11:58:35;31.10;31.70
10123;DHT22;5101;49.038;8.710;2022-09-12T12:01:16;31.20;32.10
10123;DHT22;5101;49.038;8.710;2022-09-12T12:03:44;30.90;32.10
10123;DHT22;5101;49.038;8.710;2022-09-12T12:06:16;31.00;32.80
10123;DHT22;5101;49.038;8.710;2022-09-12T12:08:46;31.00;33.40
10123;DHT22;5101;49.038;8.710;2022-09-12T12:11:14;30.70;34.00
10123;DHT22;5101;49.038;8.710;2022-09-12T12:13:44;30.70;33.80
10123;DHT22;5101;49.038;8.710;2022-09-12T12:18:43;30.80;32.60
10123;DHT22;5101;49.038;8.710;2022-09-12T12:26:41;30.70;31.20
10123;DHT22;5101;49.038;8.710;2022-09-12T12:34:31;30.60;32.70
10123;DHT22;5101;49.038;8.710;2022-09-12T12:36:57;30.70;32.90
10123;DHT22;5101;49.038;8.710;2022-09-12T12:42:02;30.60;33.00
10123;DHT22;5101;49.038;8.710;2022-09-12T12:47:23;30.60;32.40
10123;DHT22;5101;49.038;8.710;2022-09-12T12:50:00;30.70;32.40
10123;DHT22;5101;49.038;8.710;2022-09-12T12:52:32;30.90;32.20
10123;DHT22;5101;49.038;8.710;2022-09-12T12:55:14;30.80;31.70
10123;DHT22;5101;49.038;8.710;2022-09-12T12:58:01;30.80;31.30
10123;DHT22;5101;49.038;8.710;2022-09-12T13:00:35;30.70;31.20
10123;DHT22;5101;49.038;8.710;2022-09-12T13:05:46;30.90;31.30
10123;DHT22;5101;49.038;8.710;2022-09-12T13:10:51;30.60;31.70
10123;DHT22;5101;49.038;8.710;2022-09-12T13:16:10;30.60;31.20
10123;DHT22;5101;49.038;8.710;2022-09-12T13:18:47;30.60;31.50
10123;DHT22;5101;49.038;8.710;2022-09-12T13:21:20;30.40;31.00
10123;DHT22;5101;49.038;8.710;2022-09-12T13:24:12;30.30;30.90
10123;DHT22;5101;49.038;8.710;2022-09-12T13:26:41;29.90;31.20
10123;DHT22;5101;49.038;8.710;2022-09-12T13:29:19;29.80;31.50
10123;DHT22;5101;49.038;8.710;2022-09-12T13:31:48;29.60;31.50
10123;DHT22;5101;49.038;8.710;2022-09-12T13:34:22;29.60;31.50
10123;DHT22;5101;49.038;8.710;2022-09-12T13:39:48;29.50;31.30
10123;DHT22;5101;49.038;8.710;2022-09-12T13:43:07;29.60;31.20
10123;DHT22;5101;49.038;8.710;2022-09-12T13:45:23;29.50;30.80
10123;DHT22;5101;49.038;8.710;2022-09-12T13:47:54;29.30;31.30
10123;DHT22;5101;49.038;8.710;2022-09-12T13:50:26;29.30;31.60
10123;DHT22;5101;49.038;8.710;2022-09-12T13:52:55;29.10;31.60
10123;DHT22;5101;49.038;8.710;2022-09-12T13:55:37;29.10;31.60
10123;DHT22;5101;49.038;8.710;2022-09-12T13:58:51;29.00;31.50
10123;DHT22;5101;49.038;8.710;2022-09-12T14:01:12;29.10;31.90
10123;DHT22;5101;49.038;8.710;2022-09-12T14:04:07;29.10;32.30
10123;DHT22;5101;49.038;8.710;2022-09-12T14:06:49;29.10;32.50
10123;DHT22;5101;49.038;8.710;2022-09-12T14:09:22;29.00;32.20
10123;DHT22;5101;49.038;8.710;2022-09-12T14:11:49;28.80;32.00
10123;DHT22;5101;49.038;8.710;2022-09-12T14:14:36;28.90;32.10
10123;DHT22;5101;49.038;8.710;2022-09-12T14:17:30;28.70;32.00
10123;DHT22;5101;49.038;8.710;2022-09-12T14:19:59;28.70;31.90
10123;DHT22;5101;49.038;8.710;2022-09-12T14:22:26;28.60;31.70
10123;DHT22;5101;49.038;8.710;2022-09-12T14:24:54;28.30;31.80
10123;DHT22;5101;49.038;8.710;2022-09-12T14:27:26;28.20;32.10
10123;DHT22;5101;49.038;8.710;2022-09-12T14:30:00;28.30;32.30
10123;DHT22;5101;49.038;8.710;2022-09-12T14:32:26;28.20;32.40
10123;DHT22;5101;49.038;8.710;2022-09-12T14:35:12;28.10;32.50
10123;DHT22;5101;49.038;8.710;2022-09-12T14:37:41;28.00;32.50
10123;DHT22;5101;49.038;8.710;2022-09-12T14:40:22;27.90;32.90
10123;DHT22;5101;49.038;8.710;2022-09-12T14:42:49;27.90;33.20
10123;DHT22;5101;49.038;8.710;2022-09-12T14:45:24;28.10;33.10
10123;DHT22;5101;49.038;8.710;2022-09-12T14:47:52;27.90;33.00
10123;DHT22;5101;49.038;8.710;2022-09-12T14:50:22;27.90;33.10
10123;DHT22;5101;49.038;8.710;2022-09-12T14:53:02;27.80;32.90
10123;DHT22;5101;49.038;8.710;2022-09-12T14:55:30;27.80;32.40
10123;DHT22;5101;49.038;8.710;2022-09-12T14:58:26;27.70;32.50
10123;DHT22;5101;49.038;8.710;2022-09-12T15:03:34;27.70;32.50
10123;DHT22;5101;49.038;8.710;2022-09-12T15:06:01;27.80;33.00
10123;DHT22;5101;49.038;8.710;2022-09-12T15:08:29;27.80;32.80
10123;DHT22;5101;49.038;8.710;2022-09-12T15:10:55;27.70;32.70
10123;DHT22;5101;49.038;8.710;2022-09-12T15:13:23;27.60;32.80
10123;DHT22;5101;49.038;8.710;2022-09-12T15:15:55;27.60;32.70
10123;DHT22;5101;49.038;8.710;2022-09-12T15:18:23;27.60;32.60
10123;DHT22;5101;49.038;8.710;2022-09-12T15:20:52;27.50;32.70
10123;DHT22;5101;49.038;8.710;2022-09-12T15:25:46;27.40;32.80
10123;DHT22;5101;49.038;8.710;2022-09-12T15:28:20;27.40;32.60
10123;DHT22;5101;49.038;8.710;2022-09-12T15:30:48;27.30;32.10
10123;DHT22;5101;49.038;8.710;2022-09-12T15:33:15;27.20;32.50
10123;DHT22;5101;49.038;8.710;2022-09-12T15:35:41;27.20;32.80
10123;DHT22;5101;49.038;8.710;2022-09-12T15:38:06;27.10;33.10
10123;DHT22;5101;49.038;8.710;2022-09-12T15:40:32;27.10;33.40
10123;DHT22;5101;49.038;8.710;2022-09-12T15:42:57;27.00;33.40
10123;DHT22;5101;49.038;8.710;2022-09-12T15:45:29;27.00;33.40
10123;DHT22;5101;49.038;8.710;2022-09-12T15:47:55;26.90;33.50
10123;DHT22;5101;49.038;8.710;2022-09-12T15:50:21;26.90;33.80
10123;DHT22;5101;49.038;8.710;2022-09-12T15:52:47;26.90;34.40
10123;DHT22;5101;49.038;8.710;2022-09-12T15:55:21;26.90;34.40
10123;DHT22;5101;49.038;8.710;2022-09-12T15:57:47;26.80;34.50
10123;DHT22;5101;49.038;8.710;2022-09-12T16:00:14;26.80;34.60
10123;DHT22;5101;49.038;8.710;2022-09-12T16:02:40;26.80;34.50
10123;DHT22;5101;49.038;8.710;2022-09-12T16:05:14;26.80;34.20
10123;DHT22;5101;49.038;8.710;2022-09-12T16:07:41;26.70;34.30
10123;DHT22;5101;49.038;8.710;2022-09-12T16:10:09;26.60;34.40
10123;DHT22;5101;49.038;8.710;2022-09-12T16:12:37;26.60;34.50
10123;DHT22;5101;49.038;8.710;2022-09-12T16:15:03;26.50;34.70
10123;DHT22;5101;49.038;8.710;2022-09-12T16:17:29;26.50;35.00
10123;DHT22;5101;49.038;8.710;2022-09-12T16:19:54;26.40;34.90
10123;DHT22;5101;49.038;8.710;2022-09-12T16:22:20;26.40;34.90
10123;DHT22;5101;49.038;8.710;2022-09-12T16:24:45;26.40;34.80
10123;DHT22;5101;49.038;8.710;2022-09-12T16:27:11;26.30;34.90
10123;DHT22;5101;49.038;8.710;2022-09-12T16:29:36;26.20;35.10
10123;DHT22;5101;49.038;8.710;2022-09-12T16:32:02;26.20;35.30
10123;DHT22;5101;49.038;8.710;2022-09-12T16:34:27;26.20;35.80
10123;DHT22;5101;49.038;8.710;2022-09-12T16:36:53;26.20;35.90
10123;DHT22;5101;49.038;8.710;2022-09-12T16:39:18;26.00;35.70
10123;DHT22;5101;49.038;8.710;2022-09-12T16:41:44;26.00;35.90
10123;DHT22;5101;49.038;8.710;2022-09-12T16:44:10;26.00;36.30
10123;DHT22;5101;49.038;8.710;2022-09-12T16:46:35;26.00;36.60
10123;DHT22;5101;49.038;8.710;2022-09-12T16:49:01;26.00;36.80
10123;DHT22;5101;49.038;8.710;2022-09-12T16:51:30;25.90;37.30
10123;DHT22;5101;49.038;8.710;2022-09-12T16:53:56;25.90;38.00
10123;DHT22;5101;49.038;8.710;2022-09-12T16:56:22;25.90;38.40
10123;DHT22;5101;49.038;8.710;2022-09-12T16:58:48;25.90;38.50
10123;DHT22;5101;49.038;8.710;2022-09-12T17:01:16;25.80;38.70
10123;DHT22;5101;49.038;8.710;2022-09-12T17:03:43;25.80;38.50
10123;DHT22;5101;49.038;8.710;2022-09-12T17:06:12;25.80;38.70
10123;DHT22;5101;49.038;8.710;2022-09-12T17:08:40;25.70;38.90
10123;DHT22;5101;49.038;8.710;2022-09-12T17:11:09;25.70;39.50
10123;DHT22;5101;49.038;8.710;2022-09-12T17:13:35;25.60;40.20
10123;DHT22;5101;49.038;8.710;2022-09-12T17:16:10;25.60;40.80
10123;DHT22;5101;49.038;8.710;2022-09-12T17:18:37;25.60;41.10
10123;DHT22;5101;49.038;8.710;2022-09-12T17:21:04;25.50;41.20
10123;DHT22;5101;49.038;8.710;2022-09-12T17:23:30;25.40;41.90
10123;DHT22;5101;49.038;8.710;2022-09-12T17:25:55;25.40;43.10
10123;DHT22;5101;49.038;8.710;2022-09-12T17:28:21;25.30;44.50
10123;DHT22;5101;49.038;8.710;2022-09-12T17:30:57;25.20;45.50
10123;DHT22;5101;49.038;8.710;2022-09-12T17:33:24;25.10;46.40
10123;DHT22;5101;49.038;8.710;2022-09-12T17:35:50;25.10;46.10
10123;DHT22;5101;49.038;8.710;2022-09-12T17:38:16;25.00;46.00
10123;DHT22;5101;49.038;8.710;2022-09-12T17:40:41;24.90;46.00
10123;DHT22;5101;49.038;8.710;2022-09-12T17:43:10;24.80;46.60
10123;DHT22;5101;49.038;8.710;2022-09-12T17:45:36;24.70;47.70
10123;DHT22;5101;49.038;8.710;2022-09-12T17:48:01;24.60;49.00
10123;DHT22;5101;49.038;8.710;2022-09-12T17:50:27;24.50;50.20
10123;DHT22;5101;49.038;8.710;2022-09-12T17:52:53;24.50;51.70
10123;DHT22;5101;49.038;8.710;2022-09-12T17:55:19;24.30;52.80
10123;DHT22;5101;49.038;8.710;2022-09-12T17:57:45;24.30;53.00
10123;DHT22;5101;49.038;8.710;2022-09-12T18:00:11;24.10;53.20
10123;DHT22;5101;49.038;8.710;2022-09-12T18:02:36;24.00;54.00
10123;DHT22;5101;49.038;8.710;2022-09-12T18:05:02;23.90;55.40
10123;DHT22;5101;49.038;8.710;2022-09-12T18:07:31;23.80;56.80
10123;DHT22;5101;49.038;8.710;2022-09-12T18:09:57;23.60;58.40
10123;DHT22;5101;49.038;8.710;2022-09-12T18:12:23;23.60;59.20
10123;DHT22;5101;49.038;8.710;2022-09-12T18:14:49;23.50;59.60
10123;DHT22;5101;49.038;8.710;2022-09-12T18:17:14;23.40;60.80
10123;DHT22;5101;49.038;8.710;2022-09-12T18:19:40;23.30;62.10